Time;durP1;ratioP1;P1;durP2;ratioP2;P2;SDS_P1;SDS_P2;PMS_P1;PMS_P2;Temp;Humidity;BMP_temperature;BMP_pressure;BME280_temperature;BME280_humidity;BME280_pressure;Samples;Min_cycle;Max_cycle;Signal;HPM_P1;HPM_P2
2023/05/20 00:00:14;;;;;;;64.28;46.22;;;;;;;;;;5032638;28;20069;-59
2023/05/20 00:02:40;;;;;;;58.80;44.08;;;;;;;;;;5032610;28;20040;-53
2023/05/20 00:05:06;;;;;;;61.58;44.10;;;;;;;;;;5032665;28;20105;-55
2023/05/20 00:07:32;;;;;;;57.75;40.72;;;;;;;;;;5032588;28;20037;-53
2023/05/20 00:09:58;;;;;;;51.15;38.05;;;;;;;;;;5035000;28;20490;-52
2023/05/20 00:12:25;;;;;;;65.32;47.50;;;;;;;;;;5035953;28;20025;-53
2023/05/20 00:14:51;;;;;;;66.25;45.85;;;;;;;;;;5036218;28;20029;-52
2023/05/20 00:20:20;;;;;;;54.10;39.90;;;;;;;;;;5036097;28;20486;-52
2023/05/20 00:22:46;;;;;;;54.78;40.10;;;;;;;;;;5035855;28;20403;-55
2023/05/20 00:25:15;;;;;;;53.08;38.50;;;;;;;;;;5036044;28;20021;-53
2023/05/20 00:27:41;;;;;;;60.55;42.63;;;;;;;;;;5035779;28;20459;-54
2023/05/20 00:30:08;;;;;;;62.20;44.63;;;;;;;;;;5035684;28;20025;-54
2023/05/20 00:35:37;;;;;;;56.25;43.55;;;;;;;;;;5035986;28;20064;-53
2023/05/20 00:38:03;;;;;;;57.33;42.83;;;;;;;;;;5035991;28;20014;-54
2023/05/20 00:40:29;;;;;;;61.97;42.33;;;;;;;;;;5035731;28;20033;-53
2023/05/20 00:42:55;;;;;;;55.53;38.80;;;;;;;;;;5035431;28;20021;-61
2023/05/20 00:45:22;;;;;;;54.67;38.08;;;;;;;;;;5035649;28;20029;-53
2023/05/20 00:50:52;;;;;;;50.50;37.95;;;;;;;;;;5035677;28;20037;-53
2023/05/20 00:53:18;;;;;;;50.75;37.63;;;;;;;;;;5035177;28;20434;-54
2023/05/20 00:55:44;;;;;;;106.70;71.50;;;;;;;;;;5035189;28;20495;-53
2023/05/20 00:58:11;;;;;;;52.63;37.60;;;;;;;;;;5035316;28;20021;-54
2023/05/20 01:00:37;;;;;;;72.05;48.30;;;;;;;;;;5035426;28;20033;-55
2023/05/20 01:06:06;;;;;;;59.05;42.53;;;;;;;;;;5035380;28;20039;-55
2023/05/20 01:08:34;;;;;;;54.97;40.40;;;;;;;;;;5033277;28;20125;-53
2023/05/20 01:11:25;;;;;;;54.33;38.30;;;;;;;;;;5063340;28;20055;-53
2023/05/20 01:13:54;;;;;;;55.58;40.50;;;;;;;;;;5070954;28;20031;-62
2023/05/20 01:16:22;;;;;;;90.60;59.45;;;;;;;;;;5071106;28;20024;-53
2023/05/20 01:18:48;;;;;;;73.43;50.92;;;;;;;;;;5070964;28;20067;-54
2023/05/20 01:21:15;;;;;;;51.63;38.25;;;;;;;;;;5070155;28;20024;-54
2023/05/20 01:23:41;;;;;;;67.55;51.08;;;;;;;;;;5060065;28;20099;-57
2023/05/20 01:26:07;;;;;;;60.20;42.00;;;;;;;;;;5044752;28;20032;-55
2023/05/20 01:28:35;;;;;;;54.03;38.13;;;;;;;;;;5050576;28;20439;-61
2023/05/20 01:31:03;;;;;;;55.10;39.17;;;;;;;;;;5050458;28;20092;-56
2023/05/20 01:33:29;;;;;;;57.70;37.50;;;;;;;;;;5050962;28;20036;-54
2023/05/20 01:35:56;;;;;;;54.63;39.05;;;;;;;;;;5050922;28;20048;-60
2023/05/20 01:38:23;;;;;;;48.40;33.85;;;;;;;;;;5050601;28;20021;-59
2023/05/20 01:40:49;;;;;;;52.80;38.42;;;;;;;;;;5050757;28;20025;-57
2023/05/20 01:43:17;;;;;;;45.28;35.70;;;;;;;;;;5050463;28;20032;-52
2023/05/20 01:45:43;;;;;;;46.40;34.58;;;;;;;;;;5050844;28;20029;-54
2023/05/20 01:48:13;;;;;;;46.92;36.45;;;;;;;;;;5050498;28;20025;-56
2023/05/20 01:50:39;;;;;;;47.92;35.63;;;;;;;;;;5050328;28;20059;-56
2023/05/20 01:53:08;;;;;;;53.20;37.17;;;;;;;;;;5050636;28;20024;-54
2023/05/20 01:55:34;;;;;;;45.75;34.95;;;;;;;;;;5050595;28;20071;-51
2023/05/20 01:58:00;;;;;;;48.15;35.80;;;;;;;;;;5050067;28;20175;-53
2023/05/20 02:00:26;;;;;;;49.70;35.80;;;;;;;;;;5050350;28;20809;-63
2023/05/20 02:02:52;;;;;;;48.17;35.30;;;;;;;;;;5050116;28;20071;-63
2023/05/20 02:05:18;;;;;;;48.53;34.75;;;;;;;;;;5032120;28;20029;-63
2023/05/20 02:07:44;;;;;;;40.95;32.22;;;;;;;;;;5050571;28;20032;-65
2023/05/20 02:10:11;;;;;;;46.42;33.60;;;;;;;;;;5049845;28;20017;-64
2023/05/20 02:12:37;;;;;;;47.40;36.92;;;;;;;;;;5049994;28;20025;-57
2023/05/20 02:15:03;;;;;;;50.22;35.83;;;;;;;;;;5050302;28;20029;-59
2023/05/20 02:17:29;;;;;;;45.88;34.22;;;;;;;;;;5049398;28;20471;-54
2023/05/20 02:19:55;;;;;;;55.35;41.53;;;;;;;;;;5049775;28;20058;-55
2023/05/20 02:22:21;;;;;;;47.78;34.30;;;;;;;;;;5049323;28;20048;-54
2023/05/20 02:24:47;;;;;;;50.78;35.08;;;;;;;;;;5049268;28;20029;-55
2023/05/20 02:27:14;;;;;;;50.80;35.45;;;;;;;;;;5049808;28;20017;-54
2023/05/20 02:29:40;;;;;;;48.45;36.15;;;;;;;;;;5049495;28;20107;-56
2023/05/20 02:32:06;;;;;;;51.42;36.78;;;;;;;;;;5049104;28;20533;-56
2023/05/20 02:34:32;;;;;;;50.55;33.00;;;;;;;;;;5049251;28;20102;-54
2023/05/20 02:36:58;;;;;;;45.95;33.97;;;;;;;;;;5048134;28;20458;-59
2023/05/20 02:39:24;;;;;;;39.70;28.83;;;;;;;;;;5049256;28;20394;-55
2023/05/20 02:41:50;;;;;;;114.13;39.78;;;;;;;;;;5049597;28;20021;-55
2023/05/20 02:44:16;;;;;;;64.80;35.75;;;;;;;;;;5049391;28;20103;-55
2023/05/20 02:46:43;;;;;;;45.35;31.17;;;;;;;;;;5049057;28;20021;-61
2023/05/20 02:49:09;;;;;;;42.78;31.08;;;;;;;;;;5035974;28;20180;-55
2023/05/20 02:51:35;;;;;;;41.55;31.45;;;;;;;;;;5049261;28;20063;-55
2023/05/20 02:54:01;;;;;;;49.00;31.52;;;;;;;;;;5048573;28;20470;-55
2023/05/20 02:56:27;;;;;;;43.78;29.88;;;;;;;;;;5049169;28;20371;-57
2023/05/20 02:58:53;;;;;;;38.63;27.50;;;;;;;;;;5049017;28;20536;-54
2023/05/20 03:01:19;;;;;;;45.92;32.53;;;;;;;;;;5049024;28;20032;-54
2023/05/20 03:03:45;;;;;;;44.63;32.50;;;;;;;;;;5048891;28;20020;-54
2023/05/20 03:06:11;;;;;;;49.03;34.67;;;;;;;;;;5049400;28;20383;-54
2023/05/20 03:08:38;;;;;;;38.90;30.48;;;;;;;;;;5049154;28;20352;-54
2023/05/20 03:11:04;;;;;;;34.97;27.52;;;;;;;;;;5048668;28;20033;-55
2023/05/20 03:13:30;;;;;;;48.35;34.20;;;;;;;;;;5048958;28;20467;-56
2023/05/20 03:15:56;;;;;;;46.92;33.90;;;;;;;;;;5048728;28;20032;-55
2023/05/20 03:18:22;;;;;;;43.72;32.25;;;;;;;;;;5048762;28;20052;-57
2023/05/20 03:20:48;;;;;;;55.25;36.80;;;;;;;;;;5048531;28;20467;-54
2023/05/20 03:23:14;;;;;;;51.00;33.20;;;;;;;;;;5048504;28;20049;-52
2023/05/20 03:25:40;;;;;;;41.25;31.27;;;;;;;;;;5048374;28;20044;-54
2023/05/20 03:28:06;;;;;;;43.35;29.98;;;;;;;;;;5048717;28;20031;-55
2023/05/20 03:30:33;;;;;;;55.22;31.33;;;;;;;;;;5048466;28;20037;-55
2023/05/20 03:32:59;;;;;;;46.08;31.38;;;;;;;;;;5048713;28;20439;-55
2023/05/20 03:35:25;;;;;;;43.88;31.85;;;;;;;;;;5048760;28;20028;-54
2023/05/20 03:37:52;;;;;;;41.20;31.20;;;;;;;;;;5048582;28;20056;-54
2023/05/20 03:40:19;;;;;;;40.13;29.55;;;;;;;;;;5048319;28;20489;-54
2023/05/20 03:42:46;;;;;;;39.60;29.50;;;;;;;;;;5048838;28;20032;-54
2023/05/20 03:45:12;;;;;;;40.10;30.02;;;;;;;;;;5051939;28;20079;-54
2023/05/20 03:47:38;;;;;;;47.38;29.85;;;;;;;;;;5052304;28;20466;-55
2023/05/20 03:50:05;;;;;;;38.38;28.02;;;;;;;;;;5052618;28;20070;-54
2023/05/20 03:52:31;;;;;;;35.03;27.88;;;;;;;;;;5052223;28;20375;-55
2023/05/20 03:54:57;;;;;;;33.55;26.05;;;;;;;;;;5051953;28;20056;-54
2023/05/20 03:57:23;;;;;;;36.85;26.80;;;;;;;;;;5052383;28;20025;-54
2023/05/20 03:59:50;;;;;;;28.98;24.17;;;;;;;;;;5051754;28;20025;-61
2023/05/20 04:02:16;;;;;;;30.90;25.35;;;;;;;;;;5052647;28;20057;-58
2023/05/20 04:04:42;;;;;;;37.08;26.15;;;;;;;;;;5052265;28;20025;-59
2023/05/20 04:07:08;;;;;;;37.13;26.98;;;;;;;;;;5052457;28;20087;-56
2023/05/20 04:09:35;;;;;;;39.67;27.98;;;;;;;;;;5051626;28;20425;-65
2023/05/20 04:12:02;;;;;;;33.38;26.25;;;;;;;;;;5052242;28;20083;-53
2023/05/20 04:14:28;;;;;;;35.03;28.02;;;;;;;;;;5051852;28;20021;-54
2023/05/20 04:16:54;;;;;;;34.15;27.95;;;;;;;;;;5052119;28;20021;-54
2023/05/20 04:19:20;;;;;;;36.75;27.02;;;;;;;;;;5051232;28;20501;-58
2023/05/20 04:21:46;;;;;;;37.15;28.23;;;;;;;;;;5051774;28;20071;-54
2023/05/20 04:24:12;;;;;;;36.70;25.13;;;;;;;;;;5051606;28;20487;-54
2023/05/20 04:26:38;;;;;;;37.10;26.75;;;;;;;;;;5051232;28;20115;-55
2023/05/20 04:29:04;;;;;;;33.38;26.23;;;;;;;;;;5051776;28;20474;-54
2023/05/20 04:31:31;;;;;;;34.97;26.30;;;;;;;;;;5051594;28;20049;-58
2023/05/20 04:33:57;;;;;;;30.65;25.15;;;;;;;;;;5051416;28;20048;-54
2023/05/20 04:36:27;;;;;;;33.58;25.52;;;;;;;;;;5051693;28;20071;-58
2023/05/20 04:38:56;;;;;;;31.92;26.20;;;;;;;;;;5051309;28;20538;-54
2023/05/20 04:41:23;;;;;;;35.33;26.23;;;;;;;;;;5051846;28;20036;-54
2023/05/20 04:43:49;;;;;;;29.60;23.45;;;;;;;;;;5051039;28;20074;-54
2023/05/20 04:46:16;;;;;;;27.00;21.92;;;;;;;;;;5051572;28;20021;-55
2023/05/20 04:48:46;;;;;;;29.05;22.33;;;563.90;2355.20;;;;;;5051460;28;20112;-55
2023/05/20 04:51:12;;;;;;;24.58;21.40;;;614.70;2099.20;;;;;;5051317;28;20029;-55
2023/05/20 04:53:39;;;;;;;24.80;20.55;;;615.10;2048.00;;;;;;5051264;28;20082;-60
2023/05/20 04:56:05;;;;;;;24.92;21.65;;;;;;;;;;5051428;28;20104;-55
2023/05/20 04:58:32;;;;;;;27.48;21.55;;;691.20;1868.80;;;;;;5051219;28;20037;-55
2023/05/20 05:00:57;;;;;;;21.30;19.10;;;691.30;1817.60;;;;;;5051512;28;20453;-55
2023/05/20 05:03:23;;;;;;;22.90;20.50;;;716.80;1766.40;;;;;;5050718;28;20049;-55
2023/05/20 05:05:49;;;;;;;22.17;19.23;;;717.50;1689.60;;;;;;5051097;28;20029;-55
2023/05/20 05:08:16;;;;;;;21.63;19.52;;;742.90;1664.00;;;;;;5051083;28;20467;-55
2023/05/20 05:10:41;;;;;;;20.65;18.10;;;743.20;1638.40;;;;;;5050757;28;20033;-55
2023/05/20 05:13:07;;;;;;;20.67;18.50;;;768.30;1612.80;;;;;;5050649;28;20023;-55
2023/05/20 05:15:33;;;;;;;20.38;18.42;;;768.60;1561.60;;;;;;5051421;28;20033;-54
2023/05/20 05:17:58;;;;;;;20.17;18.23;;;768.90;1561.60;;;;;;5050640;28;20474;-54
2023/05/20 05:20:24;;;;;;;23.27;18.20;;;793.90;1536.00;;;;;;5050932;28;20041;-55
2023/05/20 05:22:50;;;;;;;20.17;18.10;;;794.30;1510.40;;;;;;5063759;28;20467;-60
2023/05/20 05:25:16;;;;;;;19.83;17.83;;;794.50;1484.80;;;;;;5079385;28;20081;-55
2023/05/20 05:27:43;;;;;;;20.35;18.38;;;845.20;1433.60;;;;;;5070823;28;20067;-55
2023/05/20 05:30:09;;;;;;;20.33;18.50;;;845.70;1433.60;;;;;;5078522;28;20028;-54
2023/05/20 05:32:36;;;;;;;20.65;18.48;;;870.80;1382.40;;;;;;5075815;28;20065;-55
2023/05/20 05:35:01;;;;;;;21.45;19.10;;;870.50;1408.00;;;;;;5066621;28;20070;-69
2023/05/20 05:37:27;;;;;;;20.60;18.80;;;871.10;1356.80;;;;;;5057546;28;20492;-55
2023/05/20 05:39:53;;;;;;;23.17;20.88;;;896.70;1305.60;;;;;;5055836;28;20037;-57
2023/05/20 05:42:18;;;;;;;24.30;22.00;;;922.20;1305.60;;;;;;5068097;28;20378;-56
2023/05/20 05:44:44;;;;;;;23.42;21.08;;;896.30;1331.20;;;;;;5058742;28;20055;-53
2023/05/20 05:47:10;;;;;;;24.13;21.73;;;871.30;1356.80;;;;;;5063698;28;20071;-61
2023/05/20 05:49:36;;;;;;;21.92;19.83;;;922.00;1305.60;;;;;;5072702;28;20023;-54
2023/05/20 05:52:01;;;;;;;25.83;23.23;;;947.60;1228.80;;;;;;5073509;28;20033;-57
2023/05/20 05:54:27;;;;;;;26.70;24.13;;;973.30;1228.80;;;;;;5070376;28;20052;-57
2023/05/20 05:56:55;;;;;;;25.08;22.60;;;947.80;1228.80;;;;;;5070811;28;20016;-55
2023/05/20 05:59:21;;;;;;;27.25;24.95;;;947.50;1228.80;;;;;;5070272;28;20039;-54
2023/05/20 06:01:47;;;;;;;26.98;24.38;;;947.30;1254.40;;;;;;5070316;28;20099;-54
2023/05/20 06:04:12;;;;;;;26.48;23.65;;;921.90;1305.60;;;;;;5057358;28;20028;-55
2023/05/20 06:06:39;;;;;;;26.95;24.13;;;922.00;1280.00;;;;;;5069963;28;20446;-58
2023/05/20 06:09:04;;;;;;;33.60;25.92;;;921.80;1305.60;;;;;;5070409;28;20025;-54
2023/05/20 06:11:30;;;;;;;26.83;24.25;;;922.50;1280.00;;;;;;5069879;28;20098;-61
2023/05/20 06:13:56;;;;;;;28.23;25.77;;;973.60;1203.20;;;;;;5072715;28;20032;-58
2023/05/20 06:16:21;;;;;;;28.33;25.83;;;973.70;1177.60;;;;;;5070440;28;20023;-55
2023/05/20 06:18:51;;;;;;;29.85;26.85;;;947.50;1254.40;;;;;;5069914;28;20029;-54
2023/05/20 06:21:17;;;;;;;29.20;26.60;;;947.40;1228.80;;;;;;5069915;28;20165;-55
2023/05/20 06:23:43;;;;;;;27.58;24.65;;;921.70;1305.60;;;;;;5053033;28;20136;-59
2023/05/20 06:26:09;;;;;;;30.95;28.05;;;922.00;1305.60;;;;;;5050086;28;20025;-55
2023/05/20 06:28:35;;;;;;;32.38;29.15;;;947.80;1228.80;;;;;;5049781;28;20376;-55
2023/05/20 06:31:01;;;;;;;36.92;33.35;;;921.60;1305.60;;;;;;5049920;28;20131;-57
2023/05/20 06:33:27;;;;;;;35.67;32.42;;;947.90;1228.80;;;;;;5049478;28;20036;-55
2023/05/20 06:35:55;;;;;;;32.83;29.77;;;973.50;1203.20;;;;;;5049966;28;20108;-54
2023/05/20 06:38:20;;;;;;;31.00;28.08;;;947.30;1280.00;;;;;;5049527;28;20032;-55
2023/05/20 06:40:48;;;;;;;34.90;31.40;;;948.10;1228.80;;;;;;5049819;28;20024;-64
2023/05/20 06:43:14;;;;;;;32.90;30.10;;;948.10;1228.80;;;;;;5049757;28;20025;-63
2023/05/20 06:45:40;;;;;;;36.60;33.00;;;948.10;1228.80;;;;;;5049781;28;20036;-54
2023/05/20 06:48:06;;;;;;;35.95;32.78;;;1024.00;1152.00;;;;;;5049262;28;20398;-56
2023/05/20 06:50:32;;;;;;;33.78;30.65;;;1049.70;1152.00;;;;;;5049695;28;21230;-56
2023/05/20 06:52:58;;;;;;;33.17;30.00;;;998.90;1203.20;;;;;;5049851;28;20060;-54
2023/05/20 06:55:23;;;;;;;33.03;30.20;;;998.80;1203.20;;;;;;5049696;28;20013;-54
2023/05/20 06:57:49;;;;;;;34.38;31.17;;;1024.50;1126.40;;;;;;5049541;28;20352;-60
2023/05/20 07:00:15;;;;;;;33.03;30.17;;;1024.00;1152.00;;;;;;5048863;28;20062;-55
2023/05/20 07:02:41;;;;;;;32.22;29.52;;;998.90;1177.60;;;;;;5048629;28;20029;-55
2023/05/20 07:05:08;;;;;;;36.22;33.08;;;998.90;1203.20;;;;;;5048789;28;20037;-59
2023/05/20 07:07:33;;;;;;;33.60;30.52;;;998.80;1203.20;;;;;;5049308;28;20048;-55
2023/05/20 07:09:59;;;;;;;31.52;28.83;;;998.50;1228.80;;;;;;5048705;28;20771;-55
2023/05/20 07:12:25;;;;;;;30.17;27.35;;;1049.60;1126.40;;;;;;5048869;28;20017;-55
2023/05/20 07:14:50;;;;;;;31.52;28.88;;;1024.10;1177.60;;;;;;5048752;28;20029;-57
2023/05/20 07:17:16;;;;;;;29.17;26.48;;;998.90;1177.60;;;;;;5049104;28;20471;-55
2023/05/20 07:19:42;;;;;;;31.02;28.15;;;999.20;1203.20;;;;;;5047538;28;20044;-55
2023/05/20 07:22:08;;;;;;;32.95;29.75;;;1049.70;1177.60;;;;;;5048664;28;20052;-69
2023/05/20 07:24:35;;;;;;;28.08;25.67;;;1076.10;1075.20;;;;;;5048781;28;20447;-55
2023/05/20 07:27:01;;;;;;;28.70;26.15;;;1076.10;1075.20;;;;;;5048777;28;20049;-56
2023/05/20 07:29:26;;;;;;;30.50;27.52;;;1100.80;1100.80;;;;;;5048322;28;20086;-55
2023/05/20 07:31:52;;;;;;;30.15;27.50;;;1101.40;1049.60;;;;;;5049105;28;20032;-67
2023/05/20 07:34:18;;;;;;;31.20;28.40;;;1024.90;1152.00;;;;;;5048375;28;20017;-69
2023/05/20 07:36:44;;;;;;;28.65;26.25;;;1075.50;1100.80;;;;;;5048890;28;20017;-66
2023/05/20 07:39:10;;;;;;;36.67;29.75;;;1024.70;1126.40;;;;;;5048394;28;20090;-58
2023/05/20 07:41:39;;;;;;;27.52;25.23;;;1049.90;1152.00;;;;;;5049217;28;20076;-57
2023/05/20 07:44:07;;;;;;;30.00;27.27;;;1049.60;1177.60;;;;;;5048793;28;20498;-67
2023/05/20 07:46:33;;;;;;;28.17;25.67;;;1049.60;1152.00;;;;;;5048438;28;20025;-55
2023/05/20 07:48:59;;;;;;;25.85;23.65;;;1075.40;1126.40;;;;;;5048665;28;20143;-58
2023/05/20 07:51:24;;;;;;;25.88;23.90;;;1050.00;1126.40;;;;;;5048396;28;20025;-55
2023/05/20 07:53:50;;;;;;;24.25;21.98;;;998.90;1177.60;;;;;;5048384;28;20475;-55
2023/05/20 07:56:16;;;;;;;25.95;23.52;;;1024.20;1152.00;;;;;;5048471;28;20021;-55
2023/05/20 07:58:42;;;;;;;24.45;22.42;;;973.70;1203.20;;;;;;5048652;28;20037;-56
2023/05/20 08:01:08;;;;;;;24.95;22.88;;;1024.00;1152.00;;;;;;5048511;28;20058;-57
2023/05/20 08:03:35;;;;;;;23.58;21.65;;;998.80;1177.60;;;;;;5048675;28;20017;-56
2023/05/20 08:06:02;;;;;;;22.90;20.77;;;973.20;1228.80;;;;;;5048070;28;20343;-55
2023/05/20 08:08:29;;;;;;;24.00;21.90;;;1024.50;1152.00;;;;;;5048090;28;20079;-55
2023/05/20 08:10:55;;;;;;;24.13;21.80;;;973.10;1228.80;;;;;;5048114;28;20032;-55
2023/05/20 08:13:21;;;;;;;23.60;21.67;;;948.10;1228.80;;;;;;5048181;28;20025;-54
2023/05/20 08:15:47;;;;;;;24.02;21.58;;;948.10;1228.80;;;;;;5048134;28;20471;-54
2023/05/20 08:18:14;;;;;;;23.80;21.70;;;922.50;1254.40;;;;;;5048066;28;20104;-54
2023/05/20 08:20:41;;;;;;;23.35;21.23;;;793.80;1536.00;;;;;;5047899;28;20051;-55
2023/05/20 08:23:07;;;;;;;23.45;21.25;;;;;;;;;;5047970;28;20557;-55
2023/05/20 08:25:32;;;;;;;22.13;20.02;;;768.80;1536.00;;;;;;5047898;28;20035;-55
2023/05/20 08:28:02;;;;;;;24.65;22.05;;;716.90;1740.80;;;;;;5047915;28;20111;-54
2023/05/20 08:30:29;;;;;;;23.30;20.90;;;691.70;1766.40;;;;;;5050356;28;20112;-54
2023/05/20 08:32:55;;;;;;;22.60;20.25;;;716.90;1766.40;;;;;;5052041;28;20059;-54
2023/05/20 08:35:22;;;;;;;23.58;20.90;;;691.80;1792.00;;;;;;5051306;28;20024;-54
2023/05/20 08:37:47;;;;;;;22.83;20.63;;;691.20;1817.60;;;;;;5051778;28;20108;-54
2023/05/20 08:40:14;;;;;;;19.73;17.77;;;666.30;1817.60;;;;;;5051675;28;20128;-54
2023/05/20 08:42:41;;;;;;;19.25;17.55;;;691.20;1817.60;;;;;;5051599;28;20037;-55
2023/05/20 08:45:10;;;;;;;20.08;17.35;;;666.50;1868.80;;;;;;5051336;28;20067;-54
2023/05/20 08:47:40;;;;;;;18.65;16.65;;;691.20;1843.20;;;;;;5051699;28;20017;-54
2023/05/20 08:50:07;;;;;;;19.05;17.15;;;;;;;;;;5051388;28;20479;-55
2023/05/20 08:52:34;;;;;;;19.90;15.65;;;;;;;;;;5051459;28;20039;-54
2023/05/20 08:55:01;;;;;;;16.42;14.73;;;666.10;1894.40;;;;;;5050917;28;20515;-54
2023/05/20 08:57:28;;;;;;;18.15;16.08;;;666.30;1894.40;;;;;;5051064;28;20029;-54
2023/05/20 08:59:56;;;;;;;16.10;14.38;;;666.20;1894.40;;;;;;5051379;28;20110;-54
2023/05/20 09:02:22;;;;;;;18.00;15.45;;;666.30;1843.20;;;;;;5033205;28;20471;-56
2023/05/20 09:04:47;;;;;;;17.38;14.07;;;665.70;1868.80;;;;;;5050774;28;20075;-56
2023/05/20 09:07:13;;;;;;;15.23;13.63;;;;;;;;;;5051637;28;20094;-54
2023/05/20 09:09:40;;;;;;;14.63;13.13;;;;;;;;;;5050494;28;20037;-54
2023/05/20 09:12:06;;;;;;;15.45;13.93;;;;;;;;;;5051458;28;20103;-54
2023/05/20 09:14:32;;;;;;;15.23;13.65;;;;;;;;;;5051323;28;20095;-54
2023/05/20 09:16:58;;;;;;;14.90;13.43;;;;;;;;;;5050872;28;20478;-54
2023/05/20 09:19:25;;;;;;;14.85;12.63;;;;;;;;;;5050778;28;20037;-54
2023/05/20 09:21:52;;;;;;;15.48;13.52;;;;;;;;;;5050459;28;20025;-53
2023/05/20 09:24:25;;;;;;;14.57;13.07;;;;;;;;;;5050507;28;20470;-54
2023/05/20 09:26:52;;;;;;;15.52;13.75;;;;;;;;;;5051069;28;20036;-54
2023/05/20 09:29:21;;;;;;;15.65;13.60;;;;;;;;;;5050733;28;20083;-54
2023/05/20 09:31:47;;;;;;;17.67;13.52;;;;;;;;;;5050575;28;20498;-54
2023/05/20 09:34:14;;;;;;;19.67;14.05;;;;;;;;;;5050585;28;20417;-54
2023/05/20 09:36:42;;;;;;;16.65;14.05;;;;;;;;;;5050516;28;20033;-54
2023/05/20 09:39:12;;;;;;;14.55;12.98;;;;;;;;;;5049941;28;20033;-54
2023/05/20 09:41:38;;;;;;;14.05;12.73;;;;;;;;;;5049415;28;20021;-54
2023/05/20 09:44:08;;;;;;;13.18;10.95;;;;;;;;;;5050674;28;20021;-54
2023/05/20 09:46:35;;;;;;;17.63;12.75;;;;;;;;;;5050648;28;20040;-54
2023/05/20 09:49:01;;;;;;;17.65;12.60;;;;;;;;;;5050234;28;20036;-54
2023/05/20 09:51:28;;;;;;;14.80;12.82;;;;;;;;;;5050069;28;20098;-54
2023/05/20 09:53:55;;;;;;;15.13;13.63;;;;;;;;;;5050229;28;20581;-53
2023/05/20 09:56:23;;;;;;;16.65;13.90;;;;;;;;;;5049603;28;20056;-54
2023/05/20 09:58:50;;;;;;;16.48;14.68;;;;;;;;;;5049922;28;20112;-54
2023/05/20 10:01:16;;;;;;;15.40;13.73;;;;;;;;;;5050262;28;20021;-54
2023/05/20 10:03:43;;;;;;;15.68;14.07;;;;;;;;;;5049956;28;20025;-55
2023/05/20 10:06:09;;;;;;;15.55;13.07;;;;;;;;;;5050215;28;20116;-54
2023/05/20 10:08:41;;;;;;;15.90;12.82;;;;;;;;;;5050094;28;20025;-57
2023/05/20 10:11:22;;;;;;;20.25;13.90;;;;;;;;;;5049708;28;20031;-54
2023/05/20 10:13:48;;;;;;;17.13;14.02;;;;;;;;;;5049960;28;20070;-54
2023/05/20 10:16:14;;;;;;;16.40;14.55;;;;;;;;;;5049927;28;20025;-54
2023/05/20 10:18:49;;;;;;;17.60;14.27;;;;;;;;;;5049457;28;20052;-54
2023/05/20 10:21:17;;;;;;;15.18;13.57;;;;;;;;;;5036278;28;20055;-54
2023/05/20 10:23:43;;;;;;;17.15;14.32;;;;;;;;;;5049401;28;20041;-58
2023/05/20 10:26:09;;;;;;;18.02;14.93;;;;;;;;;;5049735;28;20052;-58
2023/05/20 10:28:36;;;;;;;11.43;9.98;;;;;;;;;;5049489;28;20071;-54
2023/05/20 10:31:02;;;;;;;11.45;9.82;;;;;;;;;;5049621;28;20421;-54
2023/05/20 10:33:29;;;;;;;15.70;12.48;;;;;;;;;;5048891;28;20055;-61
2023/05/20 10:35:58;;;;;;;14.38;11.45;;;;;;;;;;5049712;28;20356;-54
2023/05/20 10:38:25;;;;;;;14.05;10.20;;;;;;;;;;5049315;28;20025;-54
2023/05/20 10:40:51;;;;;;;15.10;10.07;;;;;;;;;;5049377;28;20100;-54
2023/05/20 10:43:25;;;;;;;12.48;8.88;;;;;;;;;;5048927;28;20024;-54
2023/05/20 10:45:53;;;;;;;12.32;8.90;;;;;;;;;;5048977;28;20025;-53
2023/05/20 10:48:20;;;;;;;9.27;7.75;;;;;;;;;;5049048;28;20025;-55
2023/05/20 10:50:46;;;;;;;17.05;7.88;;;;;;;;;;5049111;28;20036;-54
2023/05/20 10:53:13;;;;;;;8.85;7.28;;;;;;;;;;5044524;28;20025;-65
2023/05/20 10:55:40;;;;;;;13.88;7.63;;;;;;;;;;5036406;28;20798;-59
2023/05/20 10:58:06;;;;;;;10.85;7.93;;;;;;;;;;5029925;28;20064;-55
2023/05/20 11:00:36;;;;;;;11.50;8.40;;;;;;;;;;5035482;28;20034;-55
2023/05/20 11:03:03;;;;;;;12.65;7.18;;;;;;;;;;5035104;28;20468;-56
2023/05/20 11:05:30;;;;;;;9.77;7.35;;;;;;;;;;5039156;28;20039;-63
2023/05/20 11:08:03;;;;;;;10.10;8.23;;;;;;;;;;5036954;28;20056;-57
2023/05/20 11:10:30;;;;;;;10.02;7.15;;;;;;;;;;5032687;28;20022;-57
2023/05/20 11:12:56;;;;;;;10.75;8.75;;;;;;;;;;5038875;28;20021;-57
2023/05/20 11:15:26;;;;;;;11.10;8.05;;;;;;;;;;5015713;28;20068;-55
2023/05/20 11:17:55;;;;;;;10.98;7.80;;;;;;;;;;5033284;28;20052;-60
2023/05/20 11:20:22;;;;;;;9.38;7.68;;;;;;;;;;5032111;28;20134;-55
2023/05/20 11:22:52;;;;;;;8.88;7.40;;;;;;;;;;5044871;28;20049;-55
2023/05/20 11:25:18;;;;;;;10.88;9.25;;;;;;;;;;5037365;28;20423;-55
2023/05/20 11:27:45;;;;;;;11.05;8.73;;;;;;;;;;5040271;28;20033;-58
2023/05/20 11:30:15;;;;;;;13.00;8.35;;;;;;;;;;5035087;28;20079;-57
2023/05/20 11:32:42;;;;;;;8.70;7.40;;;;;;;;;;5034338;28;20424;-54
2023/05/20 11:35:08;;;;;;;10.27;8.13;;;;;;;;;;5034169;28;20025;-60
2023/05/20 11:37:35;;;;;;;10.57;7.22;;;;;;;;;;5036114;28;20029;-58
2023/05/20 11:40:08;;;;;;;18.48;7.45;;;;;;;;;;5031636;28;20055;-54
2023/05/20 11:42:36;;;;;;;12.20;7.72;;;;;;;;;;5035911;28;20025;-57
2023/05/20 11:45:02;;;;;;;10.77;7.95;;;;;;;;;;5040640;28;20096;-59
2023/05/20 11:47:28;;;;;;;10.82;8.82;;;;;;;;;;5034577;28;20036;-58
2023/05/20 11:49:56;;;;;;;16.70;10.15;;;;;;;;;;5038670;28;20041;-57
2023/05/20 11:52:22;;;;;;;21.50;11.65;;;;;;;;;;5036041;28;20026;-58
2023/05/20 11:54:52;;;;;;;15.73;11.63;;;;;;;;;;5040700;28;20041;-59
2023/05/20 11:57:18;;;;;;;15.85;10.45;;;;;;;;;;5032888;28;20124;-59
2023/05/20 11:59:44;;;;;;;10.25;8.27;;;;;;;;;;5028724;28;20045;-56
2023/05/20 12:02:10;;;;;;;14.50;9.07;;;;;;;;;;5037376;28;20052;-61
2023/05/20 12:04:36;;;;;;;13.20;8.95;;;;;;;;;;5037075;28;20379;-61
2023/05/20 12:07:05;;;;;;;12.80;8.48;;;;;;;;;;5047851;28;20021;-63
2023/05/20 12:09:31;;;;;;;10.00;7.82;;;;;;;;;;5039822;28;20043;-55
2023/05/20 12:11:58;;;;;;;10.95;9.50;;;;;;;;;;5038899;28;20097;-59
2023/05/20 12:14:24;;;;;;;11.85;9.90;;;;;;;;;;5038753;28;20040;-56
2023/05/20 12:16:52;;;;;;;14.05;8.40;;;;;;;;;;5043370;28;20029;-55
2023/05/20 12:19:18;;;;;;;11.30;9.13;;;;;;;;;;5039380;28;20064;-57
2023/05/20 12:21:46;;;;;;;12.40;8.25;;;;;;;;;;5037008;28;20487;-56
2023/05/20 12:24:12;;;;;;;13.00;9.52;;;;;;;;;;5040478;28;20061;-56
2023/05/20 12:26:39;;;;;;;19.20;9.18;;;;;;;;;;5039895;28;20072;-55
2023/05/20 12:29:05;;;;;;;10.02;8.57;;;;;;;;;;5037330;28;20056;-57
2023/05/20 12:31:32;;;;;;;11.60;7.95;;;;;;;;;;5040982;28;20017;-56
2023/05/20 12:33:58;;;;;;;11.98;9.15;;;;;;;;;;5034301;28;20025;-56
2023/05/20 12:36:25;;;;;;;11.80;9.68;;;;;;;;;;5034418;28;20352;-60
2023/05/20 12:38:51;;;;;;;9.30;8.40;;;;;;;;;;5035799;28;20036;-59
2023/05/20 12:41:17;;;;;;;10.82;7.88;;;;;;;;;;5040596;28;20386;-58
2023/05/20 12:43:43;;;;;;;11.82;8.55;;;;;;;;;;5037606;28;20107;-54
2023/05/20 12:46:09;;;;;;;15.80;10.30;;;;;;;;;;5041319;28;20034;-54
2023/05/20 12:48:35;;;;;;;25.77;13.20;;;;;;;;;;5039629;28;20111;-60
2023/05/20 12:51:01;;;;;;;12.23;9.48;;;;;;;;;;5034542;28;20136;-54
2023/05/20 12:53:27;;;;;;;13.13;8.90;;;;;;;;;;5045487;28;20071;-54
2023/05/20 12:55:53;;;;;;;15.55;10.13;;;;;;;;;;5040394;28;20021;-54
2023/05/20 12:58:20;;;;;;;11.40;9.23;;;;;;;;;;5033140;28;20056;-55
2023/05/20 13:00:46;;;;;;;17.42;10.48;;;;;;;;;;5033391;28;20171;-54
2023/05/20 13:03:12;;;;;;;13.07;8.98;;;;;;;;;;5040991;28;20078;-54
2023/05/20 13:05:38;;;;;;;15.73;9.68;;;;;;;;;;5031916;28;20041;-58
2023/05/20 13:08:04;;;;;;;11.00;8.57;;;;;;;;;;5032926;28;20021;-63
2023/05/20 13:10:30;;;;;;;12.82;9.60;;;;;;;;;;5034695;28;20025;-61
2023/05/20 13:12:56;;;;;;;11.45;8.38;;;;;;;;;;5040006;28;20414;-55
2023/05/20 13:15:23;;;;;;;24.67;9.20;;;;;;;;;;5035725;28;20873;-62
2023/05/20 13:17:49;;;;;;;13.65;9.57;;;;;;;;;;5038052;28;20029;-64
2023/05/20 13:20:15;;;;;;;12.57;8.43;;;;;;;;;;5040124;28;20057;-55
2023/05/20 13:22:41;;;;;;;14.32;9.60;;;;;;;;;;5037345;28;20159;-61
2023/05/20 13:25:08;;;;;;;13.07;9.00;;;;;;;;;;5041598;28;20488;-63
2023/05/20 13:27:34;;;;;;;13.57;9.43;;;;;;;;;;5037005;28;20057;-55
2023/05/20 13:30:00;;;;;;;12.98;9.20;;;;;;;;;;5039827;28;20040;-53
2023/05/20 13:32:27;;;;;;;12.23;9.00;;;;;;;;;;5044892;28;20551;-59
2023/05/20 13:34:53;;;;;;;13.93;10.10;;;;;;;;;;5037155;28;20040;-55
2023/05/20 13:37:19;;;;;;;10.85;9.15;;;;;;;;;;5038115;28;20017;-65
2023/05/20 13:39:45;;;;;;;12.15;8.73;;;;;;;;;;5035092;28;20072;-64